sensor_id;sensor_type;location;lat;lon;timestamp;P1;durP1;ratioP1;P2;durP2;ratioP2
56999;SDS011;42891;50.006;21.964;2022-07-19T00:03:28;8.20;;;4.70;;
56999;SDS011;42891;50.006;21.964;2022-07-19T00:07:28;8.03;;;4.23;;
56999;SDS011;42891;50.006;21.964;2022-07-19T00:11:28;7.47;;;4.67;;
56999;SDS011;42891;50.006;21.964;2022-07-19T00:15:28;8.57;;;4.70;;
56999;SDS011;42891;50.006;21.964;2022-07-19T00:19:29;8.68;;;5.00;;
56999;SDS011;42891;50.006;21.964;2022-07-19T00:23:29;5.95;;;4.25;;
56999;SDS011;42891;50.006;21.964;2022-07-19T00:27:29;6.83;;;4.10;;
56999;SDS011;42891;50.006;21.964;2022-07-19T00:31:30;8.48;;;4.35;;
56999;SDS011;42891;50.006;21.964;2022-07-19T00:35:30;7.40;;;4.57;;
56999;SDS011;42891;50.006;21.964;2022-07-19T00:39:30;10.95;;;4.78;;
56999;SDS011;42891;50.006;21.964;2022-07-19T00:43:31;6.65;;;4.07;;
56999;SDS011;42891;50.006;21.964;2022-07-19T00:47:31;6.93;;;4.65;;
56999;SDS011;42891;50.006;21.964;2022-07-19T00:51:37;8.27;;;4.50;;
56999;SDS011;42891;50.006;21.964;2022-07-19T00:55:43;5.63;;;4.05;;
56999;SDS011;42891;50.006;21.964;2022-07-19T00:59:44;6.55;;;3.90;;
56999;SDS011;42891;50.006;21.964;2022-07-19T01:03:47;6.47;;;4.43;;
56999;SDS011;42891;50.006;21.964;2022-07-19T01:07:48;6.95;;;4.10;;
56999;SDS011;42891;50.006;21.964;2022-07-19T01:11:48;6.60;;;4.38;;
56999;SDS011;42891;50.006;21.964;2022-07-19T01:15:49;6.22;;;4.30;;
56999;SDS011;42891;50.006;21.964;2022-07-19T01:19:49;5.50;;;3.78;;
56999;SDS011;42891;50.006;21.964;2022-07-19T01:23:49;7.78;;;3.80;;
56999;SDS011;42891;50.006;21.964;2022-07-19T01:27:50;5.88;;;3.58;;
56999;SDS011;42891;50.006;21.964;2022-07-19T01:31:50;6.30;;;3.92;;
56999;SDS011;42891;50.006;21.964;2022-07-19T01:35:51;4.93;;;3.75;;
56999;SDS011;42891;50.006;21.964;2022-07-19T01:39:51;7.82;;;3.90;;
56999;SDS011;42891;50.006;21.964;2022-07-19T01:43:56;5.23;;;3.80;;
56999;SDS011;42891;50.006;21.964;2022-07-19T01:47:56;5.68;;;4.05;;
56999;SDS011;42891;50.006;21.964;2022-07-19T01:51:57;6.97;;;4.13;;
56999;SDS011;42891;50.006;21.964;2022-07-19T01:55:57;7.40;;;3.50;;
56999;SDS011;42891;50.006;21.964;2022-07-19T01:59:57;8.57;;;4.23;;
56999;SDS011;42891;50.006;21.964;2022-07-19T02:03:58;7.72;;;4.22;;
56999;SDS011;42891;50.006;21.964;2022-07-19T02:07:59;6.83;;;3.60;;
56999;SDS011;42891;50.006;21.964;2022-07-19T02:12:01;5.78;;;3.58;;
56999;SDS011;42891;50.006;21.964;2022-07-19T02:16:01;8.50;;;4.30;;
56999;SDS011;42891;50.006;21.964;2022-07-19T02:20:02;6.85;;;4.13;;
56999;SDS011;42891;50.006;21.964;2022-07-19T02:24:04;8.45;;;3.92;;
56999;SDS011;42891;50.006;21.964;2022-07-19T02:28:05;6.95;;;4.20;;
56999;SDS011;42891;50.006;21.964;2022-07-19T02:32:06;6.43;;;4.10;;
56999;SDS011;42891;50.006;21.964;2022-07-19T02:36:07;6.82;;;4.22;;
56999;SDS011;42891;50.006;21.964;2022-07-19T02:40:08;6.93;;;4.28;;
56999;SDS011;42891;50.006;21.964;2022-07-19T02:44:08;6.05;;;3.63;;
56999;SDS011;42891;50.006;21.964;2022-07-19T02:48:09;7.93;;;3.90;;
56999;SDS011;42891;50.006;21.964;2022-07-19T02:52:09;7.80;;;4.53;;
56999;SDS011;42891;50.006;21.964;2022-07-19T02:56:09;5.68;;;3.80;;
56999;SDS011;42891;50.006;21.964;2022-07-19T03:00:10;7.35;;;4.05;;
56999;SDS011;42891;50.006;21.964;2022-07-19T03:04:11;6.80;;;4.53;;
56999;SDS011;42891;50.006;21.964;2022-07-19T03:08:11;7.75;;;4.65;;
56999;SDS011;42891;50.006;21.964;2022-07-19T03:12:12;7.15;;;3.95;;
56999;SDS011;42891;50.006;21.964;2022-07-19T03:16:12;8.98;;;3.95;;
56999;SDS011;42891;50.006;21.964;2022-07-19T03:20:12;7.85;;;4.47;;
56999;SDS011;42891;50.006;21.964;2022-07-19T03:24:13;8.70;;;4.45;;
56999;SDS011;42891;50.006;21.964;2022-07-19T03:28:13;6.20;;;4.20;;
56999;SDS011;42891;50.006;21.964;2022-07-19T03:32:13;7.57;;;4.40;;
56999;SDS011;42891;50.006;21.964;2022-07-19T03:36:14;7.87;;;4.10;;
56999;SDS011;42891;50.006;21.964;2022-07-19T03:40:14;8.73;;;4.05;;
56999;SDS011;42891;50.006;21.964;2022-07-19T03:44:15;4.68;;;3.97;;
56999;SDS011;42891;50.006;21.964;2022-07-19T03:48:15;5.88;;;3.80;;
56999;SDS011;42891;50.006;21.964;2022-07-19T03:52:17;7.88;;;4.00;;
56999;SDS011;42891;50.006;21.964;2022-07-19T03:56:17;8.40;;;4.18;;
56999;SDS011;42891;50.006;21.964;2022-07-19T04:00:20;7.05;;;3.90;;
56999;SDS011;42891;50.006;21.964;2022-07-19T04:04:20;7.20;;;4.50;;
56999;SDS011;42891;50.006;21.964;2022-07-19T04:08:21;6.85;;;4.72;;
56999;SDS011;42891;50.006;21.964;2022-07-19T04:12:21;6.90;;;4.35;;
56999;SDS011;42891;50.006;21.964;2022-07-19T04:16:21;6.60;;;4.05;;
56999;SDS011;42891;50.006;21.964;2022-07-19T04:20:22;7.55;;;3.85;;
56999;SDS011;42891;50.006;21.964;2022-07-19T04:24:22;10.88;;;4.47;;
56999;SDS011;42891;50.006;21.964;2022-07-19T04:28:22;5.47;;;3.92;;
56999;SDS011;42891;50.006;21.964;2022-07-19T04:32:23;8.25;;;4.22;;
56999;SDS011;42891;50.006;21.964;2022-07-19T04:36:23;8.98;;;4.40;;
56999;SDS011;42891;50.006;21.964;2022-07-19T04:40:24;11.13;;;4.45;;
56999;SDS011;42891;50.006;21.964;2022-07-19T04:44:24;9.57;;;3.70;;
56999;SDS011;42891;50.006;21.964;2022-07-19T04:48:25;7.50;;;4.40;;
56999;SDS011;42891;50.006;21.964;2022-07-19T04:52:25;7.53;;;3.72;;
56999;SDS011;42891;50.006;21.964;2022-07-19T04:56:26;7.18;;;4.15;;
56999;SDS011;42891;50.006;21.964;2022-07-19T05:00:26;5.22;;;3.85;;
56999;SDS011;42891;50.006;21.964;2022-07-19T05:04:26;8.15;;;3.78;;
56999;SDS011;42891;50.006;21.964;2022-07-19T05:08:27;11.02;;;4.13;;
56999;SDS011;42891;50.006;21.964;2022-07-19T05:12:27;7.53;;;3.80;;
56999;SDS011;42891;50.006;21.964;2022-07-19T05:16:27;7.90;;;3.80;;
56999;SDS011;42891;50.006;21.964;2022-07-19T05:20:28;8.73;;;4.00;;
56999;SDS011;42891;50.006;21.964;2022-07-19T05:24:28;8.15;;;3.65;;
56999;SDS011;42891;50.006;21.964;2022-07-19T05:28:28;9.27;;;4.07;;
56999;SDS011;42891;50.006;21.964;2022-07-19T05:32:29;8.13;;;3.33;;
56999;SDS011;42891;50.006;21.964;2022-07-19T05:36:29;5.53;;;3.63;;
56999;SDS011;42891;50.006;21.964;2022-07-19T05:40:30;8.38;;;4.03;;
56999;SDS011;42891;50.006;21.964;2022-07-19T05:44:30;6.53;;;3.33;;
56999;SDS011;42891;50.006;21.964;2022-07-19T05:48:31;7.55;;;3.50;;
56999;SDS011;42891;50.006;21.964;2022-07-19T05:52:31;11.15;;;3.63;;
56999;SDS011;42891;50.006;21.964;2022-07-19T05:56:32;7.28;;;3.47;;
56999;SDS011;42891;50.006;21.964;2022-07-19T06:00:32;9.90;;;4.05;;
56999;SDS011;42891;50.006;21.964;2022-07-19T06:04:33;5.93;;;3.47;;
56999;SDS011;42891;50.006;21.964;2022-07-19T06:08:33;5.65;;;3.00;;
56999;SDS011;42891;50.006;21.964;2022-07-19T06:12:34;9.43;;;4.05;;
56999;SDS011;42891;50.006;21.964;2022-07-19T06:16:35;5.07;;;3.30;;
56999;SDS011;42891;50.006;21.964;2022-07-19T06:20:36;6.95;;;3.42;;
56999;SDS011;42891;50.006;21.964;2022-07-19T06:24:36;10.90;;;3.53;;
56999;SDS011;42891;50.006;21.964;2022-07-19T06:28:36;6.10;;;3.13;;
56999;SDS011;42891;50.006;21.964;2022-07-19T06:32:38;7.53;;;3.45;;
56999;SDS011;42891;50.006;21.964;2022-07-19T06:36:38;9.55;;;3.75;;
56999;SDS011;42891;50.006;21.964;2022-07-19T06:40:38;6.20;;;2.93;;
56999;SDS011;42891;50.006;21.964;2022-07-19T06:44:39;5.60;;;2.88;;
56999;SDS011;42891;50.006;21.964;2022-07-19T06:48:39;5.03;;;2.55;;
56999;SDS011;42891;50.006;21.964;2022-07-19T06:52:40;5.38;;;2.83;;
56999;SDS011;42891;50.006;21.964;2022-07-19T06:56:40;6.32;;;2.70;;
56999;SDS011;42891;50.006;21.964;2022-07-19T07:00:40;7.80;;;3.30;;
56999;SDS011;42891;50.006;21.964;2022-07-19T07:04:41;6.43;;;2.90;;
56999;SDS011;42891;50.006;21.964;2022-07-19T07:08:41;4.07;;;2.93;;
56999;SDS011;42891;50.006;21.964;2022-07-19T07:12:41;6.37;;;2.67;;
56999;SDS011;42891;50.006;21.964;2022-07-19T07:16:41;4.37;;;2.43;;
56999;SDS011;42891;50.006;21.964;2022-07-19T07:20:42;4.38;;;2.60;;
56999;SDS011;42891;50.006;21.964;2022-07-19T07:24:42;5.10;;;2.50;;
56999;SDS011;42891;50.006;21.964;2022-07-19T07:28:43;5.10;;;2.58;;
56999;SDS011;42891;50.006;21.964;2022-07-19T07:32:43;5.40;;;2.60;;
56999;SDS011;42891;50.006;21.964;2022-07-19T07:36:43;7.47;;;2.80;;
56999;SDS011;42891;50.006;21.964;2022-07-19T07:40:44;5.38;;;2.55;;
56999;SDS011;42891;50.006;21.964;2022-07-19T07:44:44;5.57;;;2.70;;
56999;SDS011;42891;50.006;21.964;2022-07-19T07:48:45;7.43;;;2.40;;
56999;SDS011;42891;50.006;21.964;2022-07-19T07:52:45;4.30;;;2.47;;
56999;SDS011;42891;50.006;21.964;2022-07-19T07:56:47;7.03;;;2.85;;
56999;SDS011;42891;50.006;21.964;2022-07-19T08:00:48;3.85;;;2.25;;
56999;SDS011;42891;50.006;21.964;2022-07-19T08:04:49;4.18;;;2.38;;
56999;SDS011;42891;50.006;21.964;2022-07-19T08:08:49;6.75;;;2.58;;
56999;SDS011;42891;50.006;21.964;2022-07-19T08:12:50;6.13;;;2.42;;
56999;SDS011;42891;50.006;21.964;2022-07-19T08:16:50;7.43;;;2.45;;
56999;SDS011;42891;50.006;21.964;2022-07-19T08:20:51;5.40;;;2.40;;
56999;SDS011;42891;50.006;21.964;2022-07-19T08:24:51;4.32;;;2.40;;
56999;SDS011;42891;50.006;21.964;2022-07-19T08:28:51;5.63;;;2.00;;
56999;SDS011;42891;50.006;21.964;2022-07-19T08:32:52;3.58;;;2.22;;
56999;SDS011;42891;50.006;21.964;2022-07-19T08:36:52;5.07;;;2.28;;
56999;SDS011;42891;50.006;21.964;2022-07-19T08:40:52;4.68;;;2.88;;
56999;SDS011;42891;50.006;21.964;2022-07-19T08:44:53;5.72;;;2.55;;
56999;SDS011;42891;50.006;21.964;2022-07-19T08:48:55;5.35;;;2.40;;
56999;SDS011;42891;50.006;21.964;2022-07-19T08:52:55;4.22;;;2.22;;
56999;SDS011;42891;50.006;21.964;2022-07-19T08:56:58;6.38;;;2.55;;
56999;SDS011;42891;50.006;21.964;2022-07-19T09:01:17;4.60;;;2.25;;
56999;SDS011;42891;50.006;21.964;2022-07-19T09:05:18;3.60;;;2.10;;
56999;SDS011;42891;50.006;21.964;2022-07-19T09:09:19;5.75;;;2.22;;
56999;SDS011;42891;50.006;21.964;2022-07-19T09:13:22;5.57;;;2.15;;
56999;SDS011;42891;50.006;21.964;2022-07-19T09:17:22;5.70;;;2.03;;
56999;SDS011;42891;50.006;21.964;2022-07-19T09:21:29;6.30;;;2.38;;
56999;SDS011;42891;50.006;21.964;2022-07-19T09:25:36;3.30;;;2.20;;
56999;SDS011;42891;50.006;21.964;2022-07-19T09:29:39;8.82;;;2.80;;
56999;SDS011;42891;50.006;21.964;2022-07-19T09:33:43;7.55;;;2.47;;
56999;SDS011;42891;50.006;21.964;2022-07-19T09:37:52;6.32;;;2.17;;
56999;SDS011;42891;50.006;21.964;2022-07-19T09:42:13;4.18;;;2.25;;
56999;SDS011;42891;50.006;21.964;2022-07-19T09:50:40;7.20;;;2.30;;
56999;SDS011;42891;50.006;21.964;2022-07-19T09:54:41;5.63;;;2.15;;
56999;SDS011;42891;50.006;21.964;2022-07-19T09:58:41;5.88;;;2.58;;
56999;SDS011;42891;50.006;21.964;2022-07-19T10:02:49;4.10;;;2.10;;
56999;SDS011;42891;50.006;21.964;2022-07-19T10:06:51;4.15;;;2.40;;
56999;SDS011;42891;50.006;21.964;2022-07-19T10:10:52;8.32;;;2.67;;
56999;SDS011;42891;50.006;21.964;2022-07-19T10:14:53;8.45;;;2.78;;
56999;SDS011;42891;50.006;21.964;2022-07-19T10:23:26;4.78;;;2.40;;
56999;SDS011;42891;50.006;21.964;2022-07-19T10:31:29;9.17;;;2.33;;
56999;SDS011;42891;50.006;21.964;2022-07-19T10:35:30;13.13;;;2.45;;
56999;SDS011;42891;50.006;21.964;2022-07-19T10:39:40;4.35;;;2.85;;
56999;SDS011;42891;50.006;21.964;2022-07-19T10:43:45;6.45;;;2.28;;
56999;SDS011;42891;50.006;21.964;2022-07-19T10:48:12;3.58;;;2.40;;
56999;SDS011;42891;50.006;21.964;2022-07-19T11:00:31;7.03;;;2.70;;
56999;SDS011;42891;50.006;21.964;2022-07-19T11:04:39;4.40;;;2.33;;
56999;SDS011;42891;50.006;21.964;2022-07-19T11:08:42;3.63;;;2.00;;
56999;SDS011;42891;50.006;21.964;2022-07-19T11:12:43;4.30;;;2.13;;
56999;SDS011;42891;50.006;21.964;2022-07-19T11:16:45;5.68;;;2.42;;
56999;SDS011;42891;50.006;21.964;2022-07-19T11:20:45;4.35;;;2.30;;
56999;SDS011;42891;50.006;21.964;2022-07-19T11:24:45;4.53;;;2.35;;
56999;SDS011;42891;50.006;21.964;2022-07-19T11:28:46;5.05;;;2.30;;
56999;SDS011;42891;50.006;21.964;2022-07-19T11:32:51;3.80;;;2.20;;
56999;SDS011;42891;50.006;21.964;2022-07-19T11:36:57;3.95;;;2.25;;
56999;SDS011;42891;50.006;21.964;2022-07-19T11:40:58;4.07;;;2.33;;
56999;SDS011;42891;50.006;21.964;2022-07-19T11:44:58;6.90;;;2.60;;
56999;SDS011;42891;50.006;21.964;2022-07-19T11:49:00;5.47;;;2.30;;
56999;SDS011;42891;50.006;21.964;2022-07-19T11:53:02;5.03;;;2.20;;
56999;SDS011;42891;50.006;21.964;2022-07-19T11:57:03;5.07;;;2.60;;
56999;SDS011;42891;50.006;21.964;2022-07-19T12:01:04;4.27;;;2.13;;
56999;SDS011;42891;50.006;21.964;2022-07-19T12:05:09;4.72;;;2.20;;
56999;SDS011;42891;50.006;21.964;2022-07-19T12:09:31;5.25;;;2.40;;
56999;SDS011;42891;50.006;21.964;2022-07-19T12:13:34;7.57;;;3.55;;
56999;SDS011;42891;50.006;21.964;2022-07-19T12:17:35;5.07;;;2.03;;
56999;SDS011;42891;50.006;21.964;2022-07-19T12:25:38;3.22;;;2.10;;
56999;SDS011;42891;50.006;21.964;2022-07-19T12:29:46;7.20;;;2.50;;
56999;SDS011;42891;50.006;21.964;2022-07-19T12:33:57;7.63;;;2.45;;
56999;SDS011;42891;50.006;21.964;2022-07-19T12:38:02;8.13;;;2.22;;
56999;SDS011;42891;50.006;21.964;2022-07-19T12:42:04;4.43;;;2.45;;
56999;SDS011;42891;50.006;21.964;2022-07-19T12:46:06;4.80;;;2.83;;
56999;SDS011;42891;50.006;21.964;2022-07-19T12:50:07;6.17;;;2.50;;
56999;SDS011;42891;50.006;21.964;2022-07-19T12:54:12;4.72;;;2.40;;
56999;SDS011;42891;50.006;21.964;2022-07-19T12:58:14;7.00;;;2.10;;
56999;SDS011;42891;50.006;21.964;2022-07-19T13:02:35;8.35;;;2.60;;
56999;SDS011;42891;50.006;21.964;2022-07-19T13:06:36;4.45;;;2.13;;
56999;SDS011;42891;50.006;21.964;2022-07-19T13:10:36;5.97;;;2.60;;
56999;SDS011;42891;50.006;21.964;2022-07-19T13:14:37;5.57;;;2.33;;
56999;SDS011;42891;50.006;21.964;2022-07-19T13:18:37;3.50;;;2.33;;
56999;SDS011;42891;50.006;21.964;2022-07-19T13:22:38;2.87;;;1.97;;
56999;SDS011;42891;50.006;21.964;2022-07-19T13:26:40;6.38;;;2.50;;
56999;SDS011;42891;50.006;21.964;2022-07-19T13:30:41;3.97;;;2.22;;
56999;SDS011;42891;50.006;21.964;2022-07-19T13:34:41;4.47;;;2.50;;
56999;SDS011;42891;50.006;21.964;2022-07-19T13:38:41;6.73;;;2.03;;
56999;SDS011;42891;50.006;21.964;2022-07-19T13:42:42;5.70;;;2.25;;
56999;SDS011;42891;50.006;21.964;2022-07-19T13:46:43;6.60;;;2.60;;
56999;SDS011;42891;50.006;21.964;2022-07-19T13:50:43;5.43;;;2.38;;
56999;SDS011;42891;50.006;21.964;2022-07-19T13:54:43;3.63;;;2.40;;
56999;SDS011;42891;50.006;21.964;2022-07-19T13:58:44;4.18;;;2.72;;
56999;SDS011;42891;50.006;21.964;2022-07-19T14:02:44;6.78;;;2.33;;
56999;SDS011;42891;50.006;21.964;2022-07-19T14:06:45;4.05;;;2.40;;
56999;SDS011;42891;50.006;21.964;2022-07-19T14:10:45;4.20;;;2.17;;
56999;SDS011;42891;50.006;21.964;2022-07-19T14:14:45;4.90;;;2.30;;
56999;SDS011;42891;50.006;21.964;2022-07-19T14:18:46;4.40;;;2.87;;
56999;SDS011;42891;50.006;21.964;2022-07-19T14:22:46;3.67;;;2.10;;
56999;SDS011;42891;50.006;21.964;2022-07-19T14:26:48;4.30;;;2.58;;
56999;SDS011;42891;50.006;21.964;2022-07-19T14:30:49;7.60;;;2.65;;
56999;SDS011;42891;50.006;21.964;2022-07-19T14:34:51;4.75;;;2.55;;
56999;SDS011;42891;50.006;21.964;2022-07-19T14:38:51;4.97;;;2.30;;
56999;SDS011;42891;50.006;21.964;2022-07-19T14:42:52;11.83;;;3.47;;
56999;SDS011;42891;50.006;21.964;2022-07-19T14:46:53;4.78;;;2.00;;
56999;SDS011;42891;50.006;21.964;2022-07-19T14:50:54;4.53;;;2.20;;
56999;SDS011;42891;50.006;21.964;2022-07-19T14:54:55;5.03;;;2.30;;
56999;SDS011;42891;50.006;21.964;2022-07-19T14:58:59;3.33;;;2.25;;
56999;SDS011;42891;50.006;21.964;2022-07-19T15:03:00;6.13;;;2.93;;
56999;SDS011;42891;50.006;21.964;2022-07-19T15:07:00;8.67;;;3.00;;
56999;SDS011;42891;50.006;21.964;2022-07-19T15:11:00;5.20;;;2.55;;
56999;SDS011;42891;50.006;21.964;2022-07-19T15:15:01;6.80;;;2.50;;
56999;SDS011;42891;50.006;21.964;2022-07-19T15:19:02;7.38;;;2.50;;
56999;SDS011;42891;50.006;21.964;2022-07-19T15:23:03;4.57;;;3.00;;
56999;SDS011;42891;50.006;21.964;2022-07-19T15:27:04;4.20;;;2.30;;
56999;SDS011;42891;50.006;21.964;2022-07-19T15:31:04;4.33;;;2.10;;
56999;SDS011;42891;50.006;21.964;2022-07-19T15:35:05;5.00;;;2.47;;
56999;SDS011;42891;50.006;21.964;2022-07-19T15:39:06;2.85;;;2.05;;
56999;SDS011;42891;50.006;21.964;2022-07-19T15:43:07;3.67;;;2.05;;
56999;SDS011;42891;50.006;21.964;2022-07-19T15:47:08;3.90;;;2.08;;
56999;SDS011;42891;50.006;21.964;2022-07-19T15:51:09;2.73;;;2.00;;
56999;SDS011;42891;50.006;21.964;2022-07-19T15:55:10;6.97;;;2.10;;
56999;SDS011;42891;50.006;21.964;2022-07-19T15:59:11;3.83;;;2.17;;
56999;SDS011;42891;50.006;21.964;2022-07-19T16:03:11;4.80;;;2.13;;
56999;SDS011;42891;50.006;21.964;2022-07-19T16:07:12;3.03;;;2.10;;
56999;SDS011;42891;50.006;21.964;2022-07-19T16:11:13;6.60;;;2.50;;
56999;SDS011;42891;50.006;21.964;2022-07-19T16:15:13;3.53;;;2.10;;
56999;SDS011;42891;50.006;21.964;2022-07-19T16:19:13;2.90;;;2.20;;
56999;SDS011;42891;50.006;21.964;2022-07-19T16:23:14;4.27;;;2.50;;
56999;SDS011;42891;50.006;21.964;2022-07-19T16:27:14;5.10;;;2.40;;
56999;SDS011;42891;50.006;21.964;2022-07-19T16:31:14;4.30;;;2.33;;
56999;SDS011;42891;50.006;21.964;2022-07-19T16:35:15;3.42;;;2.33;;
56999;SDS011;42891;50.006;21.964;2022-07-19T16:39:15;4.00;;;2.20;;
56999;SDS011;42891;50.006;21.964;2022-07-19T16:43:16;4.97;;;2.40;;
56999;SDS011;42891;50.006;21.964;2022-07-19T16:47:16;3.60;;;1.90;;
56999;SDS011;42891;50.006;21.964;2022-07-19T16:51:16;4.10;;;2.00;;
56999;SDS011;42891;50.006;21.964;2022-07-19T16:55:17;4.33;;;2.00;;
56999;SDS011;42891;50.006;21.964;2022-07-19T16:59:17;3.70;;;2.28;;
56999;SDS011;42891;50.006;21.964;2022-07-19T17:03:17;4.40;;;2.10;;
56999;SDS011;42891;50.006;21.964;2022-07-19T17:07:18;4.20;;;2.20;;
56999;SDS011;42891;50.006;21.964;2022-07-19T17:11:18;3.70;;;2.30;;
56999;SDS011;42891;50.006;21.964;2022-07-19T17:15:19;8.13;;;2.60;;
56999;SDS011;42891;50.006;21.964;2022-07-19T17:19:20;5.00;;;2.33;;
56999;SDS011;42891;50.006;21.964;2022-07-19T17:23:20;5.10;;;2.28;;
56999;SDS011;42891;50.006;21.964;2022-07-19T17:27:21;5.93;;;2.50;;
56999;SDS011;42891;50.006;21.964;2022-07-19T17:31:21;4.88;;;2.40;;
56999;SDS011;42891;50.006;21.964;2022-07-19T17:35:21;6.10;;;2.10;;
56999;SDS011;42891;50.006;21.964;2022-07-19T17:39:22;5.05;;;2.22;;
56999;SDS011;42891;50.006;21.964;2022-07-19T17:43:22;4.35;;;2.60;;
56999;SDS011;42891;50.006;21.964;2022-07-19T17:47:22;2.57;;;2.20;;
56999;SDS011;42891;50.006;21.964;2022-07-19T17:51:26;4.78;;;2.30;;
56999;SDS011;42891;50.006;21.964;2022-07-19T17:55:27;6.25;;;2.28;;
56999;SDS011;42891;50.006;21.964;2022-07-19T17:59:27;6.07;;;2.37;;
56999;SDS011;42891;50.006;21.964;2022-07-19T18:03:27;4.32;;;2.25;;
56999;SDS011;42891;50.006;21.964;2022-07-19T18:07:28;7.10;;;2.50;;
56999;SDS011;42891;50.006;21.964;2022-07-19T18:11:29;5.18;;;2.60;;
56999;SDS011;42891;50.006;21.964;2022-07-19T18:15:29;3.87;;;2.33;;
56999;SDS011;42891;50.006;21.964;2022-07-19T18:19:29;3.65;;;2.63;;
56999;SDS011;42891;50.006;21.964;2022-07-19T18:23:30;5.90;;;2.47;;
56999;SDS011;42891;50.006;21.964;2022-07-19T18:27:30;10.18;;;2.70;;
56999;SDS011;42891;50.006;21.964;2022-07-19T18:31:31;9.13;;;2.95;;
56999;SDS011;42891;50.006;21.964;2022-07-19T18:35:31;8.47;;;2.90;;
56999;SDS011;42891;50.006;21.964;2022-07-19T18:39:31;5.07;;;3.20;;
56999;SDS011;42891;50.006;21.964;2022-07-19T18:43:34;8.60;;;3.20;;
56999;SDS011;42891;50.006;21.964;2022-07-19T18:51:38;10.60;;;3.90;;
56999;SDS011;42891;50.006;21.964;2022-07-19T18:55:38;13.57;;;4.18;;
56999;SDS011;42891;50.006;21.964;2022-07-19T18:59:42;9.95;;;3.70;;
56999;SDS011;42891;50.006;21.964;2022-07-19T19:03:42;7.80;;;3.92;;
56999;SDS011;42891;50.006;21.964;2022-07-19T19:07:42;7.75;;;4.45;;
56999;SDS011;42891;50.006;21.964;2022-07-19T19:11:43;8.25;;;4.38;;
56999;SDS011;42891;50.006;21.964;2022-07-19T19:15:45;11.90;;;4.83;;
56999;SDS011;42891;50.006;21.964;2022-07-19T19:19:45;16.40;;;5.40;;
56999;SDS011;42891;50.006;21.964;2022-07-19T19:23:46;14.85;;;5.93;;
56999;SDS011;42891;50.006;21.964;2022-07-19T19:27:49;12.40;;;5.43;;
56999;SDS011;42891;50.006;21.964;2022-07-19T19:31:50;17.30;;;5.95;;
56999;SDS011;42891;50.006;21.964;2022-07-19T19:35:51;10.23;;;4.93;;
56999;SDS011;42891;50.006;21.964;2022-07-19T19:39:52;9.60;;;5.32;;
56999;SDS011;42891;50.006;21.964;2022-07-19T19:43:53;14.85;;;6.03;;
56999;SDS011;42891;50.006;21.964;2022-07-19T19:47:56;14.95;;;5.80;;
56999;SDS011;42891;50.006;21.964;2022-07-19T19:51:58;17.63;;;6.25;;
56999;SDS011;42891;50.006;21.964;2022-07-19T19:55:58;13.17;;;6.80;;
56999;SDS011;42891;50.006;21.964;2022-07-19T19:59:59;13.85;;;6.28;;
56999;SDS011;42891;50.006;21.964;2022-07-19T20:04:03;11.55;;;6.10;;
56999;SDS011;42891;50.006;21.964;2022-07-19T20:08:04;12.27;;;6.32;;
56999;SDS011;42891;50.006;21.964;2022-07-19T20:12:05;9.90;;;5.50;;
56999;SDS011;42891;50.006;21.964;2022-07-19T20:16:05;7.90;;;5.45;;
56999;SDS011;42891;50.006;21.964;2022-07-19T20:20:06;12.90;;;5.50;;
56999;SDS011;42891;50.006;21.964;2022-07-19T20:24:07;8.07;;;5.43;;
56999;SDS011;42891;50.006;21.964;2022-07-19T20:28:08;11.73;;;5.35;;
56999;SDS011;42891;50.006;21.964;2022-07-19T20:32:09;10.95;;;5.60;;
56999;SDS011;42891;50.006;21.964;2022-07-19T20:36:09;10.57;;;5.70;;
56999;SDS011;42891;50.006;21.964;2022-07-19T20:40:10;11.77;;;5.45;;
56999;SDS011;42891;50.006;21.964;2022-07-19T20:44:11;12.88;;;5.63;;
56999;SDS011;42891;50.006;21.964;2022-07-19T20:48:12;10.47;;;5.73;;
56999;SDS011;42891;50.006;21.964;2022-07-19T20:52:12;9.70;;;6.20;;
56999;SDS011;42891;50.006;21.964;2022-07-19T20:56:15;9.57;;;5.45;;
56999;SDS011;42891;50.006;21.964;2022-07-19T21:00:15;16.45;;;6.07;;
56999;SDS011;42891;50.006;21.964;2022-07-19T21:04:16;11.38;;;6.32;;
56999;SDS011;42891;50.006;21.964;2022-07-19T21:08:16;13.98;;;7.22;;
56999;SDS011;42891;50.006;21.964;2022-07-19T21:12:17;10.70;;;6.97;;
56999;SDS011;42891;50.006;21.964;2022-07-19T21:16:20;14.15;;;6.60;;
56999;SDS011;42891;50.006;21.964;2022-07-19T21:20:20;12.98;;;7.53;;
56999;SDS011;42891;50.006;21.964;2022-07-19T21:24:21;16.95;;;7.43;;
56999;SDS011;42891;50.006;21.964;2022-07-19T21:28:22;16.58;;;8.27;;
56999;SDS011;42891;50.006;21.964;2022-07-19T21:32:22;13.93;;;8.07;;
56999;SDS011;42891;50.006;21.964;2022-07-19T21:36:22;10.93;;;6.82;;
56999;SDS011;42891;50.006;21.964;2022-07-19T21:40:23;13.90;;;7.88;;
56999;SDS011;42891;50.006;21.964;2022-07-19T21:44:24;11.20;;;7.22;;
56999;SDS011;42891;50.006;21.964;2022-07-19T21:48:24;13.97;;;7.43;;
56999;SDS011;42891;50.006;21.964;2022-07-19T21:52:24;14.63;;;8.27;;
56999;SDS011;42891;50.006;21.964;2022-07-19T21:56:25;17.80;;;8.43;;
56999;SDS011;42891;50.006;21.964;2022-07-19T22:00:25;15.48;;;7.75;;
56999;SDS011;42891;50.006;21.964;2022-07-19T22:04:28;15.40;;;7.50;;
56999;SDS011;42891;50.006;21.964;2022-07-19T22:08:29;15.38;;;8.45;;
56999;SDS011;42891;50.006;21.964;2022-07-19T22:12:31;10.93;;;7.45;;
56999;SDS011;42891;50.006;21.964;2022-07-19T22:16:32;11.98;;;7.38;;
56999;SDS011;42891;50.006;21.964;2022-07-19T22:20:32;12.27;;;7.30;;
56999;SDS011;42891;50.006;21.964;2022-07-19T22:24:32;14.77;;;7.93;;
56999;SDS011;42891;50.006;21.964;2022-07-19T22:28:32;12.57;;;7.37;;
56999;SDS011;42891;50.006;21.964;2022-07-19T22:32:33;13.02;;;7.20;;
56999;SDS011;42891;50.006;21.964;2022-07-19T22:36:33;16.25;;;7.55;;
56999;SDS011;42891;50.006;21.964;2022-07-19T22:40:34;12.87;;;7.60;;
56999;SDS011;42891;50.006;21.964;2022-07-19T22:44:34;15.45;;;7.50;;
56999;SDS011;42891;50.006;21.964;2022-07-19T22:48:34;13.95;;;7.30;;
56999;SDS011;42891;50.006;21.964;2022-07-19T22:52:35;13.10;;;7.03;;
56999;SDS011;42891;50.006;21.964;2022-07-19T22:56:35;11.73;;;6.57;;
56999;SDS011;42891;50.006;21.964;2022-07-19T23:00:35;12.00;;;6.75;;
56999;SDS011;42891;50.006;21.964;2022-07-19T23:04:36;12.50;;;6.63;;
56999;SDS011;42891;50.006;21.964;2022-07-19T23:08:36;13.80;;;7.10;;
56999;SDS011;42891;50.006;21.964;2022-07-19T23:12:37;12.82;;;6.82;;
56999;SDS011;42891;50.006;21.964;2022-07-19T23:16:37;11.52;;;7.07;;
56999;SDS011;42891;50.006;21.964;2022-07-19T23:20:38;10.90;;;6.80;;
56999;SDS011;42891;50.006;21.964;2022-07-19T23:24:38;10.48;;;6.85;;
56999;SDS011;42891;50.006;21.964;2022-07-19T23:28:38;9.60;;;5.93;;
56999;SDS011;42891;50.006;21.964;2022-07-19T23:32:39;10.53;;;6.47;;
56999;SDS011;42891;50.006;21.964;2022-07-19T23:36:39;10.82;;;6.10;;
56999;SDS011;42891;50.006;21.964;2022-07-19T23:40:39;11.00;;;6.20;;
56999;SDS011;42891;50.006;21.964;2022-07-19T23:44:39;12.30;;;6.60;;
56999;SDS011;42891;50.006;21.964;2022-07-19T23:48:40;9.60;;;6.37;;
56999;SDS011;42891;50.006;21.964;2022-07-19T23:52:41;12.00;;;6.85;;
56999;SDS011;42891;50.006;21.964;2022-07-19T23:56:41;9.97;;;6.10;;
